Time;durP1;ratioP1;P1;durP2;ratioP2;P2;SDS_P1;SDS_P2;PMS_P1;PMS_P2;Temp;Humidity;BMP_temperature;BMP_pressure;BME280_temperature;BME280_humidity;BME280_pressure;Samples;Min_cycle;Max_cycle;Signal;HPM_P1;HPM_P2
2022/10/25 00:00:28;;;;;;;17.13;10.80;;;;;;;;;;4942577;28;20703;-37
2022/10/25 00:02:54;;;;;;;25.07;11.10;;;;;;;;;;4943785;28;20352;-36
2022/10/25 00:05:20;;;;;;;23.03;11.90;;;;;;;;;;4949048;28;20182;-36
2022/10/25 00:07:46;;;;;;;21.53;10.33;;;;;;;;;;4948591;28;20845;-36
2022/10/25 00:10:12;;;;;;;18.70;10.90;;;;;;;;;;4946682;28;20435;-36
2022/10/25 00:12:43;;;;;;;20.03;11.30;;;;;;;;;;4942025;28;20186;-37
2022/10/25 00:15:09;;;;;;;19.67;10.80;;;;;;;;;;4946948;28;20182;-36
2022/10/25 00:17:35;;;;;;;21.33;11.23;;;;;;;;;;4940814;28;20726;-37
2022/10/25 00:20:01;;;;;;;20.63;10.13;;;;;;;;;;4942212;28;20503;-36
2022/10/25 00:22:30;;;;;;;20.77;11.37;;;;;;;;;;4940328;28;20596;-37
2022/10/25 00:24:56;;;;;;;27.60;12.00;;;;;;;;;;4948068;28;20179;-37
2022/10/25 00:27:23;;;;;;;21.53;11.53;;;;;;;;;;4949124;28;20260;-36
2022/10/25 00:29:49;;;;;;;22.00;12.53;;;;;;;;;;4947047;28;20194;-37
2022/10/25 00:32:15;;;;;;;24.00;11.83;;;;;;;;;;4946708;28;20261;-36
2022/10/25 00:34:41;;;;;;;25.93;12.00;;;;;;;;;;4944714;28;20626;-35
2022/10/25 00:37:07;;;;;;;23.20;11.53;;;;;;;;;;4952577;28;20206;-36
2022/10/25 00:39:33;;;;;;;23.13;11.27;;;;;;;;;;4955256;28;20169;-36
2022/10/25 00:41:59;;;;;;;18.10;11.23;;;;;;;;;;4954494;28;20592;-37
2022/10/25 00:44:40;;;;;;;21.00;11.50;;;;;;;;;;4947168;28;20441;-36
2022/10/25 00:47:12;;;;;;;25.13;11.63;;;;;;;;;;4948815;28;20738;-36
2022/10/25 00:49:40;;;;;;;17.17;11.30;;;;;;;;;;4949424;28;20182;-36
2022/10/25 00:52:06;;;;;;;27.93;11.83;;;;;;;;;;4948482;28;20777;-36
2022/10/25 00:54:36;;;;;;;21.93;11.60;;;;;;;;;;4946945;28;20186;-36
2022/10/25 00:57:05;;;;;;;20.27;11.33;;;;;;;;;;4951751;28;20388;-36
2022/10/25 00:59:31;;;;;;;21.00;11.33;;;;;;;;;;4953690;28;20199;-36
2022/10/25 01:01:57;;;;;;;19.80;11.90;;;;;;;;;;4947666;28;20684;-36
2022/10/25 01:04:28;;;;;;;23.63;11.40;;;;;;;;;;4947729;28;20174;-36
2022/10/25 01:06:54;;;;;;;19.30;10.87;;;;;;;;;;4949565;28;20178;-36
2022/10/25 01:09:25;;;;;;;17.93;11.83;;;;;;;;;;4954605;28;21053;-37
2022/10/25 01:11:52;;;;;;;21.93;12.23;;;;;;;;;;4951601;28;20907;-37
2022/10/25 01:14:18;;;;;;;21.13;11.80;;;;;;;;;;4947912;28;20523;-36
2022/10/25 01:17:04;;;;;;;23.47;12.50;;;;;;;;;;4952891;28;20269;-36
2022/10/25 01:19:54;;;;;;;18.37;10.63;;;;;;;;;;4946487;28;20178;-36
2022/10/25 01:22:20;;;;;;;23.53;12.50;;;;;;;;;;4950028;28;20709;-36
2022/10/25 01:25:04;;;;;;;22.57;12.10;;;;;;;;;;4950878;28;20341;-36
2022/10/25 01:27:44;;;;;;;22.13;10.93;;;;;;;;;;4952627;28;20174;-36
2022/10/25 01:30:18;;;;;;;20.20;11.93;;;;;;;;;;4950303;28;20185;-36
2022/10/25 01:32:49;;;;;;;20.13;11.60;;;;;;;;;;4949777;28;20187;-36
2022/10/25 01:35:27;;;;;;;20.67;11.33;;;;;;;;;;4947726;28;20974;-35
2022/10/25 01:38:00;;;;;;;20.90;11.23;;;;;;;;;;4952304;28;20695;-37
2022/10/25 01:40:29;;;;;;;23.10;11.47;;;;;;;;;;4945391;28;20658;-36
2022/10/25 01:43:11;;;;;;;24.57;11.53;;;;;;;;;;4950897;28;20186;-36
2022/10/25 01:45:40;;;;;;;23.93;11.53;;;;;;;;;;4948254;28;20619;-36
2022/10/25 01:48:13;;;;;;;18.57;11.07;;;;;;;;;;4951876;28;20194;-36
2022/10/25 01:50:41;;;;;;;21.93;11.57;;;;;;;;;;4950896;28;20178;-36
2022/10/25 01:53:07;;;;;;;23.83;12.97;;;;;;;;;;4951077;28;20525;-36
2022/10/25 01:55:37;;;;;;;27.23;11.57;;;;;;;;;;4954814;28;20639;-36
2022/10/25 01:58:12;;;;;;;28.70;11.67;;;;;;;;;;4953284;28;20285;-36
2022/10/25 02:00:48;;;;;;;24.33;11.70;;;;;;;;;;4945352;28;20224;-36
2022/10/25 02:03:21;;;;;;;32.17;13.47;;;;;;;;;;4952333;28;20186;-37
2022/10/25 02:06:04;;;;;;;19.83;11.30;;;;;;;;;;4948858;28;20182;-37
2022/10/25 02:08:40;;;;;;;20.60;11.57;;;;;;;;;;4948053;28;20182;-36
2022/10/25 02:11:09;;;;;;;26.50;13.23;;;;;;;;;;4946160;28;20489;-36
2022/10/25 02:13:35;;;;;;;29.67;14.23;;;;;;;;;;4943208;28;20248;-36
2022/10/25 02:16:04;;;;;;;23.53;13.40;;;;;;;;;;4946356;28;20702;-37
2022/10/25 02:18:34;;;;;;;24.47;13.70;;;;;;;;;;4951439;28;20273;-37
2022/10/25 02:21:01;;;;;;;25.73;14.37;;;;;;;;;;4948692;28;20538;-36
2022/10/25 02:23:27;;;;;;;24.80;13.77;;;;;;;;;;4948325;28;20307;-36
2022/10/25 02:25:53;;;;;;;24.00;13.93;;;;;;;;;;4947271;28;20178;-37
2022/10/25 02:28:21;;;;;;;25.80;14.27;;;;;;;;;;4949670;28;20209;-36
2022/10/25 02:30:49;;;;;;;26.80;14.77;;;;;;;;;;4949319;28;20181;-36
2022/10/25 02:33:15;;;;;;;26.53;14.33;;;;;;;;;;4946481;28;20265;-36
2022/10/25 02:35:41;;;;;;;22.57;13.10;;;;;;;;;;4944763;28;20306;-36
2022/10/25 02:38:08;;;;;;;21.67;13.87;;;;;;;;;;4950791;28;20721;-36
2022/10/25 02:40:34;;;;;;;23.23;13.70;;;;;;;;;;4944385;28;20713;-37
2022/10/25 02:43:00;;;;;;;25.67;14.10;;;;;;;;;;4943545;28;20745;-36
2022/10/25 02:45:26;;;;;;;29.50;14.60;;;;;;;;;;4939182;28;20178;-37
2022/10/25 02:47:52;;;;;;;24.83;13.80;;;;;;;;;;4946966;28;20189;-37
2022/10/25 02:50:18;;;;;;;27.93;14.80;;;;;;;;;;4947565;28;20189;-37
2022/10/25 02:52:44;;;;;;;22.87;13.80;;;;;;;;;;4938906;28;20183;-36
2022/10/25 02:55:10;;;;;;;27.73;13.90;;;;;;;;;;4945694;28;20197;-36
2022/10/25 02:57:37;;;;;;;25.40;13.83;;;;;;;;;;4950756;28;20345;-36
2022/10/25 03:00:04;;;;;;;25.73;13.97;;;;;;;;;;4952289;28;20174;-36
2022/10/25 03:02:30;;;;;;;28.40;15.37;;;;;;;;;;4947407;28;20186;-36
2022/10/25 03:04:56;;;;;;;26.20;14.10;;;;;;;;;;4944215;28;20524;-37
2022/10/25 03:07:22;;;;;;;22.77;14.30;;;;;;;;;;4945910;28;20178;-36
2022/10/25 03:09:48;;;;;;;27.40;14.67;;;;;;;;;;4948419;28;20178;-36
2022/10/25 03:12:14;;;;;;;22.30;12.97;;;;;;;;;;4945465;28;20186;-36
2022/10/25 03:14:40;;;;;;;24.27;14.40;;;;;;;;;;4942998;28;20195;-36
2022/10/25 03:17:07;;;;;;;24.70;14.63;;;;;;;;;;4944784;28;20205;-36
2022/10/25 03:19:33;;;;;;;24.00;14.17;;;;;;;;;;4950378;28;20932;-36
2022/10/25 03:21:59;;;;;;;26.97;13.80;;;;;;;;;;4946136;28;20297;-36
2022/10/25 03:24:25;;;;;;;24.03;14.10;;;;;;;;;;4938166;28;20181;-36
2022/10/25 03:26:51;;;;;;;28.73;14.47;;;;;;;;;;4948248;28;20174;-37
2022/10/25 03:29:17;;;;;;;28.93;13.80;;;;;;;;;;4943627;28;20273;-36
2022/10/25 03:31:43;;;;;;;29.77;14.70;;;;;;;;;;4946404;28;20480;-35
2022/10/25 03:34:09;;;;;;;29.43;14.93;;;;;;;;;;4949328;28;20186;-36
2022/10/25 03:36:35;;;;;;;32.37;15.20;;;;;;;;;;4947613;28;20224;-36
2022/10/25 03:39:01;;;;;;;31.27;15.33;;;;;;;;;;4944751;28;20633;-37
2022/10/25 03:41:27;;;;;;;25.63;13.93;;;;;;;;;;4947167;28;20170;-36
2022/10/25 03:43:53;;;;;;;28.40;16.17;;;;;;;;;;4947766;28;20178;-37
2022/10/25 03:46:20;;;;;;;31.23;16.63;;;;;;;;;;4944523;28;20293;-36
2022/10/25 03:48:46;;;;;;;31.93;17.37;;;;;;;;;;4946611;28;20313;-36
2022/10/25 03:51:12;;;;;;;34.77;18.33;;;;;;;;;;4949012;28;20733;-36
2022/10/25 03:53:38;;;;;;;31.93;16.80;;;;;;;;;;4949612;28;20191;-36
2022/10/25 03:56:04;;;;;;;33.80;18.67;;;;;;;;;;4944504;28;20206;-36
2022/10/25 03:58:30;;;;;;;37.37;19.50;;;;;;;;;;4946451;28;20182;-37
2022/10/25 04:00:56;;;;;;;40.90;20.23;;;;;;;;;;4948673;28;20543;-36
2022/10/25 04:03:23;;;;;;;33.97;18.63;;;;;;;;;;4949094;28;20189;-36
2022/10/25 04:05:49;;;;;;;35.20;18.53;;;;;;;;;;4946270;28;20684;-36
2022/10/25 04:08:15;;;;;;;42.73;20.77;;;;;;;;;;4949505;28;20289;-36
2022/10/25 04:10:41;;;;;;;36.87;20.83;;;;;;;;;;4952402;28;20206;-36
2022/10/25 04:13:07;;;;;;;39.80;21.60;;;;;;;;;;4950220;28;20723;-36
2022/10/25 04:15:33;;;;;;;34.17;19.83;;;;;;;;;;4946702;28;20195;-36
2022/10/25 04:17:59;;;;;;;36.90;19.80;;;;;;;;;;4952586;28;20186;-37
2022/10/25 04:20:25;;;;;;;29.10;18.30;;;;;;;;;;4950717;28;20433;-37
2022/10/25 04:22:55;;;;;;;32.97;18.97;;;;;;;;;;4952832;28;20567;-36
2022/10/25 04:25:21;;;;;;;40.00;22.40;;;;;;;;;;4946194;28;20182;-36
2022/10/25 04:27:47;;;;;;;41.60;23.80;;;;;;;;;;4948722;28;20414;-37
2022/10/25 04:30:13;;;;;;;36.87;21.87;;;;;;;;;;4946718;28;20189;-36
2022/10/25 04:32:39;;;;;;;39.40;22.73;;;;;;;;;;4948457;28;20546;-37
2022/10/25 04:35:06;;;;;;;42.57;23.87;;;;;;;;;;4947694;28;20362;-36
2022/10/25 04:37:32;;;;;;;38.00;21.50;;;;;;;;;;4950160;28;20221;-36
2022/10/25 04:39:58;;;;;;;35.43;21.07;;;;;;;;;;4954122;28;20961;-36
2022/10/25 04:42:24;;;;;;;44.80;25.73;;;;;;;;;;4948914;28;20486;-36
2022/10/25 04:44:50;;;;;;;45.00;23.27;;;;;;;;;;4948164;28;20365;-36
2022/10/25 04:47:16;;;;;;;43.70;24.20;;;;;;;;;;4949917;28;20723;-37
2022/10/25 04:49:42;;;;;;;44.43;22.23;;;;;;;;;;4949633;28;20222;-36
2022/10/25 04:52:08;;;;;;;44.80;23.10;;;;;;;;;;4948495;28;20457;-36
2022/10/25 04:54:34;;;;;;;43.50;23.80;;;;;;;;;;4949593;28;20190;-36
2022/10/25 04:57:00;;;;;;;44.77;24.33;;;;;;;;;;4949735;28;20201;-37
2022/10/25 04:59:26;;;;;;;34.83;23.20;;;;;;;;;;4943983;28;20349;-36
2022/10/25 05:01:52;;;;;;;39.67;24.23;;;;;;;;;;4951050;28;20194;-36
2022/10/25 05:04:18;;;;;;;39.90;23.47;;;;;;;;;;4943667;28;20174;-36
2022/10/25 05:06:44;;;;;;;41.87;24.23;;;;;;;;;;4950237;28;20726;-37
2022/10/25 05:09:11;;;;;;;43.67;25.03;;;;;;;;;;4953054;28;21404;-37
2022/10/25 05:11:37;;;;;;;42.50;24.17;;;;;;;;;;4948731;28;20207;-36
2022/10/25 05:14:03;;;;;;;44.10;24.07;;;;;;;;;;4948367;28;20185;-36
2022/10/25 05:16:33;;;;;;;40.20;23.23;;;;;;;;;;4943160;28;20758;-37
2022/10/25 05:19:00;;;;;;;45.13;25.80;;;;;;;;;;4945367;28;20595;-36
2022/10/25 05:21:29;;;;;;;43.87;24.20;;;;;;;;;;4944044;28;20772;-37
2022/10/25 05:23:55;;;;;;;49.97;26.97;;;;;;;;;;4948121;28;20266;-36
2022/10/25 05:26:21;;;;;;;40.93;25.33;;;;;;;;;;4949235;28;20378;-37
2022/10/25 05:28:49;;;;;;;56.17;29.33;;;;;;;;;;4948640;28;20709;-36
2022/10/25 05:31:19;;;;;;;53.53;31.53;;;;;;;;;;4941268;28;20443;-36
2022/10/25 05:33:46;;;;;;;57.33;31.73;;;;;;;;;;4950230;28;20186;-36
2022/10/25 05:36:13;;;;;;;55.50;30.63;;;;;;;;;;4946604;28;20452;-37
2022/10/25 05:38:39;;;;;;;53.40;31.10;;;;;;;;;;4948632;28;20173;-37
2022/10/25 05:41:05;;;;;;;62.63;32.70;;;;;;;;;;4938252;28;20968;-37
2022/10/25 05:43:32;;;;;;;55.70;32.77;;;;;;;;;;4946686;28;20213;-36
2022/10/25 05:46:02;;;;;;;53.80;32.10;;;;;;;;;;4949538;28;20868;-36
2022/10/25 05:48:28;;;;;;;59.97;35.73;;;;;;;;;;4948396;28;20186;-36
2022/10/25 05:50:54;;;;;;;59.30;35.47;;;;;;;;;;4947938;28;20456;-36
2022/10/25 05:53:20;;;;;;;62.10;34.87;;;;;;;;;;4948406;28;20707;-37
2022/10/25 05:55:47;;;;;;;61.10;35.77;;;;;;;;;;4950538;28;20198;-37
2022/10/25 05:58:13;;;;;;;53.93;33.70;;;;;;;;;;4945491;28;20244;-36
2022/10/25 06:00:39;;;;;;;59.57;35.27;;;;;;;;;;4946311;28;20192;-36
2022/10/25 06:03:05;;;;;;;56.30;33.33;;;;;;;;;;4950826;28;20319;-36
2022/10/25 06:05:32;;;;;;;56.50;35.13;;;;;;;;;;4943532;28;20596;-36
2022/10/25 06:07:58;;;;;;;63.30;38.23;;;;;;;;;;4947917;28;20208;-37
2022/10/25 06:10:24;;;;;;;57.43;34.47;;;;;;;;;;4947357;28;20186;-37
2022/10/25 06:12:50;;;;;;;73.57;39.47;;;;;;;;;;4946164;28;20174;-37
2022/10/25 06:15:16;;;;;;;64.30;38.03;;;;;;;;;;4952588;28;20556;-37
2022/10/25 06:17:42;;;;;;;65.80;39.30;;;;;;;;;;4949155;28;20189;-36
2022/10/25 06:20:09;;;;;;;64.37;38.50;;;;;;;;;;4947131;28;20397;-36
2022/10/25 06:22:35;;;;;;;72.20;41.23;;;;;;;;;;4946116;28;21122;-36
2022/10/25 06:25:01;;;;;;;72.57;42.13;;;;;;;;;;4946569;28;20450;-36
2022/10/25 06:27:27;;;;;;;68.30;40.03;;;;;;;;;;4946300;28;20182;-37
2022/10/25 06:29:53;;;;;;;66.47;40.23;;;;;;;;;;4945226;28;21038;-37
2022/10/25 06:32:19;;;;;;;63.37;40.13;;;;;;;;;;4938531;28;20584;-36
2022/10/25 06:34:45;;;;;;;74.37;43.57;;;;;;;;;;4932095;28;20232;-37
2022/10/25 06:37:11;;;;;;;71.10;42.27;;;;;;;;;;4935177;28;20294;-36
2022/10/25 06:39:37;;;;;;;73.20;42.90;;;;;;;;;;4941902;28;20659;-36
2022/10/25 06:42:03;;;;;;;76.40;41.83;;;;;;;;;;4947520;28;20443;-35
2022/10/25 06:44:29;;;;;;;67.53;42.90;;;;;;;;;;4953661;28;20661;-37
2022/10/25 06:46:55;;;;;;;77.97;45.40;;;;;;;;;;4940081;28;20642;-36
2022/10/25 06:49:21;;;;;;;76.83;43.87;;;;;;;;;;4937623;28;20697;-36
2022/10/25 06:51:47;;;;;;;82.47;46.03;;;;;;;;;;4952072;28;20178;-37
2022/10/25 06:54:13;;;;;;;65.20;41.73;;;;;;;;;;4950615;28;20826;-36
2022/10/25 06:56:40;;;;;;;78.67;44.63;;;;;;;;;;4949499;28;20551;-37
2022/10/25 06:59:06;;;;;;;76.37;44.93;;;;;;;;;;4948403;28;20714;-36
2022/10/25 07:01:32;;;;;;;75.00;44.33;;;;;;;;;;4941302;28;20549;-36
2022/10/25 07:03:59;;;;;;;77.53;45.67;;;;;;;;;;4946355;28;20167;-37
2022/10/25 07:06:28;;;;;;;83.57;48.70;;;;;;;;;;4952206;28;20293;-36
2022/10/25 07:08:57;;;;;;;79.87;47.53;;;;;;;;;;4953314;28;20182;-36
2022/10/25 07:11:24;;;;;;;85.57;49.37;;;;;;;;;;4951395;28;20178;-36
2022/10/25 07:13:50;;;;;;;82.13;48.30;;;;;;;;;;4950788;28;20288;-36
2022/10/25 07:16:18;;;;;;;70.63;45.13;;;;;;;;;;4952496;28;20217;-36
2022/10/25 07:18:44;;;;;;;73.10;45.87;;;;;;;;;;4951631;28;20725;-36
2022/10/25 07:21:10;;;;;;;68.80;45.27;;;;;;;;;;4951818;28;20307;-37
2022/10/25 07:23:41;;;;;;;75.37;47.20;;;;;;;;;;4946970;28;20281;-37
2022/10/25 07:26:17;;;;;;;69.67;46.87;;;;;;;;;;4940929;28;20214;-37
2022/10/25 07:28:44;;;;;;;70.83;45.87;;;;;;;;;;4937846;28;20193;-37
2022/10/25 07:31:14;;;;;;;78.37;47.23;;;;;;;;;;4944544;28;20185;-37
2022/10/25 07:33:40;;;;;;;77.67;45.77;;;;;;;;;;4944251;28;20241;-36
2022/10/25 07:36:06;;;;;;;77.80;45.80;;;;;;;;;;4943081;28;20206;-37
2022/10/25 07:38:32;;;;;;;74.40;46.10;;;;;;;;;;4941245;28;20860;-36
2022/10/25 07:40:59;;;;;;;63.27;42.43;;;;;;;;;;4943797;28;20177;-36
2022/10/25 07:43:25;;;;;;;63.53;42.40;;;;;;;;;;4943983;28;20745;-37
2022/10/25 07:45:51;;;;;;;67.33;42.60;;;;;;;;;;4948678;28;20261;-36
2022/10/25 07:48:17;;;;;;;71.40;43.03;;;;;;;;;;4954786;28;20991;-37
2022/10/25 07:50:43;;;;;;;58.93;39.13;;;;;;;;;;4960942;28;20188;-36
2022/10/25 07:53:10;;;;;;;62.33;39.80;;;;;;;;;;4956395;28;20293;-36
2022/10/25 07:55:36;;;;;;;59.30;39.97;;;;;;;;;;4956102;28;20189;-36
2022/10/25 07:58:03;;;;;;;54.93;38.50;;;;;;;;;;4953378;28;20708;-37
2022/10/25 08:00:29;;;;;;;63.47;38.93;;;;;;;;;;4956886;28;21323;-36
2022/10/25 08:02:55;;;;;;;53.60;37.73;;;;;;;;;;4958627;28;20980;-36
2022/10/25 08:05:22;;;;;;;59.37;39.47;;;;;;;;;;4955484;28;20178;-36
2022/10/25 08:07:51;;;;;;;57.93;38.50;;;;;;;;;;4953334;28;20224;-37
2022/10/25 08:10:20;;;;;;;60.23;39.03;;;;;;;;;;4960077;28;20162;-36
2022/10/25 08:12:47;;;;;;;68.97;41.93;;;;;;;;;;4955564;28;20962;-36
2022/10/25 08:15:14;;;;;;;62.20;41.50;;;;;;;;;;4955554;28;20167;-38
2022/10/25 08:17:40;;;;;;;73.43;44.07;;;;;;;;;;4955031;28;20229;-36
2022/10/25 08:20:06;;;;;;;70.63;43.33;;;;;;;;;;4959796;28;20167;-37
2022/10/25 08:22:32;;;;;;;77.83;41.20;;;;;;;;;;4959071;28;20162;-36
2022/10/25 08:24:59;;;;;;;70.20;41.50;;;;;;;;;;4958447;28;20174;-37
2022/10/25 08:27:25;;;;;;;68.60;40.57;;;;;;;;;;4956901;28;21748;-36
2022/10/25 08:29:52;;;;;;;70.07;40.53;;;;;;;;;;4958087;28;20186;-36
2022/10/25 08:32:18;;;;;;;66.97;40.57;;;;;;;;;;4957296;28;21106;-36
2022/10/25 08:34:44;;;;;;;75.10;42.70;;;;;;;;;;4956518;28;20189;-36
2022/10/25 08:37:11;;;;;;;75.30;41.60;;;;;;;;;;4931164;28;20202;-37
2022/10/25 08:39:37;;;;;;;67.00;41.03;;;;;;;;;;4923983;28;21133;-36
2022/10/25 08:42:03;;;;;;;65.13;40.87;;;;;;;;;;4931475;28;20181;-37
2022/10/25 08:44:32;;;;;;;60.03;37.30;;;;;;;;;;4913829;28;20168;-36
2022/10/25 08:47:04;;;;;;;68.73;40.30;;;;;;;;;;4934497;28;20186;-37
2022/10/25 08:49:33;;;;;;;68.63;42.43;;;;;;;;;;4947924;28;20188;-36
2022/10/25 08:51:59;;;;;;;67.43;41.10;;;;;;;;;;4941559;28;20892;-36
2022/10/25 08:54:34;;;;;;;70.03;38.43;;;;;;;;;;4944035;28;20361;-36
2022/10/25 08:57:03;;;;;;;66.47;40.50;;;;;;;;;;4943327;28;20265;-37
2022/10/25 08:59:31;;;;;;;62.47;40.07;;;;;;;;;;4944277;28;20175;-37
2022/10/25 09:01:59;;;;;;;60.47;39.77;;;;;;;;;;4943437;28;20182;-36
2022/10/25 09:04:25;;;;;;;61.00;38.57;;;;;;;;;;4944592;28;20705;-36
2022/10/25 09:07:00;;;;;;;65.70;40.53;;;;;;;;;;4937048;28;20191;-36
2022/10/25 09:09:38;;;;;;;60.47;39.10;;;;;;;;;;4932553;28;20273;-37
2022/10/25 09:12:07;;;;;;;61.37;38.03;;;;;;;;;;4940353;28;20198;-37
2022/10/25 09:14:46;;;;;;;61.37;39.87;;;;;;;;;;4939809;28;20989;-37
2022/10/25 09:17:15;;;;;;;64.50;40.57;;;;;;;;;;4937266;28;20202;-37
2022/10/25 09:19:58;;;;;;;59.70;36.63;;;;;;;;;;4941533;28;20179;-36
2022/10/25 09:22:29;;;;;;;61.87;38.27;;;;;;;;;;4942078;28;20194;-36
2022/10/25 09:25:06;;;;;;;55.00;36.07;;;;;;;;;;4939748;28;20175;-36
2022/10/25 09:27:34;;;;;;;63.27;37.67;;;;;;;;;;4940983;28;20634;-36
2022/10/25 09:30:02;;;;;;;56.67;36.40;;;;;;;;;;4940278;28;20711;-36
2022/10/25 09:32:34;;;;;;;60.53;35.43;;;;;;;;;;4939593;28;20560;-37
2022/10/25 09:35:01;;;;;;;62.47;34.87;;;;;;;;;;4937725;28;20688;-36
2022/10/25 09:37:29;;;;;;;54.87;34.83;;;;;;;;;;4941615;28;20196;-36
2022/10/25 09:39:59;;;;;;;49.73;32.07;;;;;;;;;;4940890;28;20665;-36
2022/10/25 09:42:32;;;;;;;44.83;30.83;;;;;;;;;;4942154;28;20768;-36
2022/10/25 09:45:01;;;;;;;47.27;30.20;;;;;;;;;;4934890;28;20310;-36
2022/10/25 09:47:46;;;;;;;48.73;29.67;;;;;;;;;;4940950;28;20445;-36
2022/10/25 09:50:18;;;;;;;43.33;30.13;;;;;;;;;;4940340;28;20178;-37
2022/10/25 09:52:54;;;;;;;54.17;32.27;;;;;;;;;;4940419;28;20196;-36
2022/10/25 09:55:46;;;;;;;47.93;31.13;;;;;;;;;;4942257;28;20599;-37
2022/10/25 09:58:29;;;;;;;44.40;29.23;;;;;;;;;;4928614;28;20277;-37
2022/10/25 10:00:56;;;;;;;49.60;28.57;;;;;;;;;;4937769;28;20389;-36
2022/10/25 10:03:22;;;;;;;38.67;28.20;;;;;;;;;;4939839;28;20691;-36
2022/10/25 10:05:55;;;;;;;43.23;27.50;;;;;;;;;;4940381;28;20736;-37
2022/10/25 10:08:22;;;;;;;45.87;28.60;;;;;;;;;;4928660;28;20295;-37
2022/10/25 10:10:49;;;;;;;48.33;28.90;;;;;;;;;;4943309;28;20673;-36
2022/10/25 10:13:35;;;;;;;44.07;29.03;;;;;;;;;;4930058;28;20535;-36
2022/10/25 10:16:04;;;;;;;41.87;29.20;;;;;;;;;;4932101;28;20195;-37
2022/10/25 10:18:31;;;;;;;46.53;28.07;;;;;;;;;;4937987;28;20175;-36
2022/10/25 10:20:57;;;;;;;48.00;30.33;;;;;;;;;;4931666;28;20485;-36
2022/10/25 10:23:24;;;;;;;58.30;32.10;;;;;;;;;;4938567;28;20182;-37
2022/10/25 10:25:50;;;;;;;46.23;30.57;;;;;;;;;;4940736;28;20190;-37
2022/10/25 10:28:16;;;;;;;47.73;29.10;;;;;;;;;;4934610;28;20209;-36
2022/10/25 10:30:52;;;;;;;47.37;28.93;;;;;;;;;;4933594;28;20194;-36
2022/10/25 10:33:18;;;;;;;40.27;26.97;;;;;;;;;;4939849;28;20265;-37
2022/10/25 10:35:44;;;;;;;43.50;27.10;;;;;;;;;;4940142;28;20186;-36
2022/10/25 10:38:26;;;;;;;45.37;28.27;;;;;;;;;;4934610;28;20822;-36
2022/10/25 10:41:11;;;;;;;39.17;25.87;;;;;;;;;;4934686;28;20240;-37
2022/10/25 10:43:37;;;;;;;46.00;27.97;;;;;;;;;;4938291;28;20193;-37
2022/10/25 10:46:05;;;;;;;43.97;26.97;;;;;;;;;;4941264;28;20556;-37
2022/10/25 10:48:39;;;;;;;37.17;25.37;;;;;;;;;;4940189;28;20205;-36
2022/10/25 10:51:05;;;;;;;39.43;23.70;;;;;;;;;;4939085;28;20564;-36
2022/10/25 10:53:31;;;;;;;33.37;24.43;;;;;;;;;;4938593;28;20465;-36
2022/10/25 10:56:02;;;;;;;36.17;24.37;;;;;;;;;;4937256;28;20249;-37
2022/10/25 10:58:30;;;;;;;34.50;22.73;;;;;;;;;;4938328;28;20253;-37
2022/10/25 11:00:58;;;;;;;39.03;25.10;;;;;;;;;;4936919;28;20179;-37
2022/10/25 11:03:42;;;;;;;35.63;23.17;;;;;;;;;;4939392;28;20335;-36
2022/10/25 11:06:26;;;;;;;38.93;24.70;;;;;;;;;;4939378;28;20893;-36
2022/10/25 11:09:04;;;;;;;39.33;24.90;;;;;;;;;;4935377;28;20191;-37
2022/10/25 11:11:30;;;;;;;38.37;23.40;;;;;;;;;;4938957;28;20186;-37
2022/10/25 11:13:57;;;;;;;37.40;24.70;;;;;;;;;;4940429;28;20178;-36
2022/10/25 11:16:41;;;;;;;38.20;23.33;;;;;;;;;;4936100;28;20618;-37
2022/10/25 11:19:10;;;;;;;38.33;22.90;;;;;;;;;;4933138;28;20245;-37
2022/10/25 11:21:55;;;;;;;33.93;23.53;;;;;;;;;;4940067;28;20175;-36
2022/10/25 11:24:27;;;;;;;41.60;22.07;;;;;;;;;;4937315;28;20166;-37
2022/10/25 11:26:53;;;;;;;31.70;19.97;;;;;;;;;;4942287;28;20187;-37
2022/10/25 11:29:29;;;;;;;28.40;18.90;;;;;;;;;;4938008;28;20689;-37
2022/10/25 11:32:07;;;;;;;24.37;15.70;;;;;;;;;;4937459;28;20190;-37
2022/10/25 11:34:48;;;;;;;24.93;15.40;;;;;;;;;;4925245;28;20186;-36
2022/10/25 11:37:17;;;;;;;25.53;14.40;;;;;;;;;;4933111;28;20216;-37
2022/10/25 11:39:46;;;;;;;23.20;14.03;;;;;;;;;;4932719;28;20282;-37
2022/10/25 11:42:24;;;;;;;23.60;13.60;;;;;;;;;;4938498;28;20179;-36
2022/10/25 11:44:50;;;;;;;22.00;13.00;;;;;;;;;;4938921;28;20171;-37
2022/10/25 11:47:34;;;;;;;21.73;12.43;;;;;;;;;;4939135;28;20564;-37
2022/10/25 11:50:19;;;;;;;21.07;11.47;;;;;;;;;;4935745;28;20496;-37
2022/10/25 11:52:53;;;;;;;18.53;11.73;;;;;;;;;;4937762;28;20183;-37
2022/10/25 11:55:25;;;;;;;21.77;11.93;;;;;;;;;;4930603;28;20599;-37
2022/10/25 11:58:18;;;;;;;17.80;11.33;;;;;;;;;;4933375;28;20257;-36
2022/10/25 12:00:44;;;;;;;19.57;12.40;;;;;;;;;;4936427;28;20517;-37
2022/10/25 12:03:29;;;;;;;26.63;12.23;;;;;;;;;;4936868;28;20182;-37
2022/10/25 12:06:04;;;;;;;22.77;12.40;;;;;;;;;;4937452;28;20652;-36
2022/10/25 12:08:37;;;;;;;21.37;11.47;;;;;;;;;;4941272;28;20356;-36
2022/10/25 12:11:05;;;;;;;20.40;12.13;;;;;;;;;;4940130;28;20656;-36
2022/10/25 12:13:36;;;;;;;17.33;12.60;;;;;;;;;;4937130;28;21312;-37
2022/10/25 12:16:03;;;;;;;21.33;12.40;;;;;;;;;;4936141;28;20230;-36
2022/10/25 12:18:33;;;;;;;22.90;12.50;;;;;;;;;;4939723;28;20189;-37
2022/10/25 12:21:00;;;;;;;19.80;11.43;;;;;;;;;;4940098;28;20186;-37
2022/10/25 12:23:27;;;;;;;23.30;11.00;;;;;;;;;;4939040;28;20209;-36
2022/10/25 12:25:56;;;;;;;21.23;11.20;;;;;;;;;;4940998;28;20179;-37
2022/10/25 12:28:26;;;;;;;14.37;10.13;;;;;;;;;;4940890;28;20608;-36
2022/10/25 12:30:56;;;;;;;20.87;10.87;;;;;;;;;;4939489;28;20179;-36
2022/10/25 12:33:35;;;;;;;18.17;10.60;;;;;;;;;;4939441;28;20207;-37
2022/10/25 12:36:04;;;;;;;18.77;9.90;;;;;;;;;;4941798;28;20190;-36
2022/10/25 12:38:37;;;;;;;20.60;11.00;;;;;;;;;;4939586;28;20310;-37
2022/10/25 12:41:07;;;;;;;20.03;10.40;;;;;;;;;;4938217;28;20667;-36
2022/10/25 12:43:56;;;;;;;17.93;10.50;;;;;;;;;;4936926;28;20208;-36
2022/10/25 12:46:44;;;;;;;19.77;9.67;;;;;;;;;;4920313;28;20230;-36
2022/10/25 12:49:23;;;;;;;16.60;9.60;;;;;;;;;;4946065;28;20433;-37
2022/10/25 12:52:05;;;;;;;16.63;9.13;;;;;;;;;;4939793;28;20175;-36
2022/10/25 12:54:39;;;;;;;20.27;10.03;;;;;;;;;;4935882;28;20297;-38
2022/10/25 12:57:08;;;;;;;19.30;9.50;;;;;;;;;;4940994;28;20338;-37
2022/10/25 12:59:55;;;;;;;15.40;9.37;;;;;;;;;;4940647;28;20580;-36
2022/10/25 13:02:21;;;;;;;16.87;9.87;;;;;;;;;;4944134;28;20202;-36
2022/10/25 13:04:47;;;;;;;18.80;9.80;;;;;;;;;;4942758;28;20218;-37
2022/10/25 13:07:14;;;;;;;20.00;9.60;;;;;;;;;;4939746;28;20298;-37
2022/10/25 13:09:41;;;;;;;19.57;8.93;;;;;;;;;;4940772;28;20245;-37
2022/10/25 13:12:07;;;;;;;18.83;9.67;;;;;;;;;;4939718;28;20651;-37
2022/10/25 13:14:35;;;;;;;19.13;8.80;;;;;;;;;;4937442;28;20470;-36
2022/10/25 13:17:30;;;;;;;20.87;8.63;;;;;;;;;;4937158;28;20576;-37
2022/10/25 13:20:15;;;;;;;19.23;8.53;;;;;;;;;;4933694;28;20631;-37
2022/10/25 13:22:41;;;;;;;18.03;8.33;;;;;;;;;;4923421;28;20183;-37
2022/10/25 13:25:07;;;;;;;15.37;7.70;;;;;;;;;;4913563;28;20459;-37
2022/10/25 13:27:34;;;;;;;15.27;8.10;;;;;;;;;;4917709;28;20221;-37
2022/10/25 13:30:06;;;;;;;17.47;8.80;;;;;;;;;;4913807;28;20746;-37
2022/10/25 13:32:40;;;;;;;17.37;8.50;;;;;;;;;;4915951;28;20981;-36
2022/10/25 13:35:21;;;;;;;18.70;7.83;;;;;;;;;;4917316;28;20187;-37
2022/10/25 13:37:48;;;;;;;19.37;7.83;;;;;;;;;;4924598;28;20293;-36
2022/10/25 13:40:17;;;;;;;13.40;7.27;;;;;;;;;;4926709;28;20237;-36
2022/10/25 13:42:44;;;;;;;17.20;8.00;;;;;;;;;;4923649;28;20588;-38
2022/10/25 13:45:20;;;;;;;22.20;8.00;;;;;;;;;;4918544;28;20328;-38
2022/10/25 13:47:48;;;;;;;15.63;7.07;;;;;;;;;;4919168;28;20198;-38
2022/10/25 13:50:35;;;;;;;15.40;7.40;;;;;;;;;;4927083;28;20191;-35
2022/10/25 13:53:16;;;;;;;15.83;7.53;;;;;;;;;;4933808;28;20293;-37
2022/10/25 13:55:59;;;;;;;13.80;7.20;;;;;;;;;;4931059;28;20179;-35
2022/10/25 13:58:28;;;;;;;17.00;7.53;;;;;;;;;;4934928;28;20187;-35
2022/10/25 14:00:55;;;;;;;14.60;6.43;;;;;;;;;;4936779;28;20417;-36
2022/10/25 14:03:22;;;;;;;15.73;6.93;;;;;;;;;;4935427;28;20179;-37
2022/10/25 14:05:54;;;;;;;12.13;6.53;;;;;;;;;;4934929;28;20395;-37
2022/10/25 14:08:26;;;;;;;13.70;6.77;;;;;;;;;;4935428;28;20648;-37
2022/10/25 14:10:53;;;;;;;19.23;7.10;;;;;;;;;;4938133;28;20371;-36
2022/10/25 14:13:22;;;;;;;13.50;7.07;;;;;;;;;;4929882;28;20175;-37
2022/10/25 14:15:51;;;;;;;17.17;6.87;;;;;;;;;;4934631;28;20853;-37
2022/10/25 14:18:20;;;;;;;12.70;6.63;;;;;;;;;;4930953;28;20185;-37
2022/10/25 14:20:53;;;;;;;15.90;7.23;;;;;;;;;;4913127;28;20183;-37
2022/10/25 14:23:23;;;;;;;15.27;6.67;;;;;;;;;;4890782;28;21408;-37
2022/10/25 14:25:50;;;;;;;15.13;7.13;;;;;;;;;;4924332;28;21454;-38
2022/10/25 14:28:21;;;;;;;15.17;8.30;;;;;;;;;;4925878;28;20301;-37
2022/10/25 14:30:48;;;;;;;15.73;7.50;;;;;;;;;;4927888;28;20274;-37